Airfield :
LOGIN :

Register | Disclaimer

   EN    FR    IT 

 










Legend :    VFR   Marginal VFR   IFR   Intensive IFR   Very Intensive IFR
Visi :
Ceiling :
>= 8 km
>= 3000ft
5 to 8 km
1000 to 3000 ft
1500m to 5 km
500 to 1000 ft
800 to 1500m
200 to 500 ft
< 800m
< 200 ft
Symbols :   Thunderstorms  Fog  Heavy snow  Heavy precipitations  Wind > 20 kt
SIGMETs :     Misc.  Thunderstorms  Icing  Turbulence  Mountain Waves  Volcanic Ashes






- Airport Elevation : 22 ft
- IATA code : LDY


EGAE - Londonderry Eglington

CURRENT METAR :
  • 201620Z 14014KT 9999 FEW013 BKN019 10/07 Q1002

EXPIRED METARs :
  • 201550Z 14011KT 9999 FEW014 BKN018 10/07 Q1002
  • 201520Z 14011KT 9999 9000NE FEW014 BKN018 10/07 Q1001
  • 201450Z 14014KT 9999 VCSH FEW014 BKN018 10/07 Q1001
  • 201420Z 14012KT 110V170 9999 SCT017 11/07 Q1001
  • 201350Z 14011KT 9999 FEW015 SCT022 11/07 Q1001

TAF TAF EGAE
Valid from the 20 at 15:00 until the 20 at 21:00 UTC


201356Z 2015/2021 14012KT 9999 FEW015 SCT025
TEMPO 2015/2021 15016G26KT
PROB30
TEMPO 2015/2021 8000 -RA SCT007 BKN012



MET'MAP, your aeronautical weather chart ! - Copyright ORBIFLY December 2007 - Disclaimer

ORBIFLY MET'MAP TEAM :

Programming & Development : Alexandra Zaïnal
Concept & Development : Baudouin d'Aumeries
Co-Development & Prog : Marc-Olivier Méhu
Technical & hardware support : Manuel Goepfert

Contact : metmap@orbifly.com




SOURCES & CREDITS :

   NOAA